sensor_id;sensor_type;location;lat;lon;timestamp;pressure;altitude;pressure_sealevel;temperature;humidity
39793;BME280;26080;42.264;24.536;2022-11-24T00:01:58;98298.72;;;6.20;100.00
39793;BME280;26080;42.264;24.536;2022-11-24T00:04:23;98299.34;;;6.26;100.00
39793;BME280;26080;42.264;24.536;2022-11-24T00:06:49;98306.78;;;6.14;100.00
39793;BME280;26080;42.264;24.536;2022-11-24T00:09:14;98302.25;;;6.19;100.00
39793;BME280;26080;42.264;24.536;2022-11-24T00:11:40;98304.94;;;6.16;100.00
39793;BME280;26080;42.264;24.536;2022-11-24T00:14:05;98301.59;;;6.14;100.00
39793;BME280;26080;42.264;24.536;2022-11-24T00:16:33;98301.47;;;6.17;100.00
39793;BME280;26080;42.264;24.536;2022-11-24T00:19:00;98303.00;;;6.21;100.00
39793;BME280;26080;42.264;24.536;2022-11-24T00:21:28;98310.91;;;6.00;100.00
39793;BME280;26080;42.264;24.536;2022-11-24T00:23:54;98313.94;;;5.89;100.00
39793;BME280;26080;42.264;24.536;2022-11-24T00:26:25;98319.06;;;5.92;100.00
39793;BME280;26080;42.264;24.536;2022-11-24T00:28:53;98318.31;;;5.88;100.00
39793;BME280;26080;42.264;24.536;2022-11-24T00:31:28;98321.75;;;5.90;100.00
39793;BME280;26080;42.264;24.536;2022-11-24T00:33:59;98315.00;;;5.85;100.00
39793;BME280;26080;42.264;24.536;2022-11-24T00:36:27;98328.69;;;5.88;100.00
39793;BME280;26080;42.264;24.536;2022-11-24T00:38:54;98328.34;;;5.77;100.00
39793;BME280;26080;42.264;24.536;2022-11-24T00:41:20;98326.28;;;5.65;100.00
39793;BME280;26080;42.264;24.536;2022-11-24T00:43:45;98302.88;;;5.45;100.00
39793;BME280;26080;42.264;24.536;2022-11-24T00:46:11;98334.06;;;5.45;100.00
39793;BME280;26080;42.264;24.536;2022-11-24T00:48:36;98352.56;;;5.37;100.00
39793;BME280;26080;42.264;24.536;2022-11-24T00:51:07;98318.50;;;5.02;100.00
39793;BME280;26080;42.264;24.536;2022-11-24T00:53:33;98341.50;;;5.12;100.00
39793;BME280;26080;42.264;24.536;2022-11-24T00:55:59;98347.09;;;5.01;100.00
39793;BME280;26080;42.264;24.536;2022-11-24T00:58:24;98346.25;;;5.00;100.00
39793;BME280;26080;42.264;24.536;2022-11-24T01:00:51;98351.63;;;4.96;100.00
39793;BME280;26080;42.264;24.536;2022-11-24T01:03:18;98346.38;;;4.97;100.00
39793;BME280;26080;42.264;24.536;2022-11-24T01:05:43;98345.34;;;4.80;100.00
39793;BME280;26080;42.264;24.536;2022-11-24T01:08:09;98351.41;;;4.80;100.00
39793;BME280;26080;42.264;24.536;2022-11-24T01:10:35;98345.66;;;4.72;100.00
39793;BME280;26080;42.264;24.536;2022-11-24T01:13:01;98347.59;;;4.67;100.00
39793;BME280;26080;42.264;24.536;2022-11-24T01:15:26;98338.22;;;4.63;100.00
39793;BME280;26080;42.264;24.536;2022-11-24T01:17:54;98330.91;;;4.51;100.00
39793;BME280;26080;42.264;24.536;2022-11-24T01:20:20;98342.75;;;4.58;100.00
39793;BME280;26080;42.264;24.536;2022-11-24T01:22:47;98319.09;;;4.43;100.00
39793;BME280;26080;42.264;24.536;2022-11-24T01:25:13;98338.59;;;4.54;100.00
39793;BME280;26080;42.264;24.536;2022-11-24T01:27:38;98331.88;;;4.48;100.00
39793;BME280;26080;42.264;24.536;2022-11-24T01:30:05;98331.41;;;4.60;100.00
39793;BME280;26080;42.264;24.536;2022-11-24T01:32:31;98329.22;;;4.50;100.00
39793;BME280;26080;42.264;24.536;2022-11-24T01:35:04;98329.47;;;4.43;100.00
39793;BME280;26080;42.264;24.536;2022-11-24T01:37:29;98338.28;;;4.39;100.00
39793;BME280;26080;42.264;24.536;2022-11-24T01:39:55;98338.38;;;4.36;100.00
39793;BME280;26080;42.264;24.536;2022-11-24T01:42:20;98337.63;;;4.33;100.00
39793;BME280;26080;42.264;24.536;2022-11-24T01:44:47;98324.75;;;4.31;100.00
39793;BME280;26080;42.264;24.536;2022-11-24T01:47:34;98325.72;;;4.29;100.00
39793;BME280;26080;42.264;24.536;2022-11-24T01:50:02;98327.59;;;4.24;100.00
39793;BME280;26080;42.264;24.536;2022-11-24T01:52:49;98330.44;;;4.18;100.00
39793;BME280;26080;42.264;24.536;2022-11-24T01:55:19;98331.53;;;4.12;100.00
39793;BME280;26080;42.264;24.536;2022-11-24T01:58:11;98329.03;;;4.09;100.00
39793;BME280;26080;42.264;24.536;2022-11-24T02:00:39;98329.91;;;4.08;100.00
39793;BME280;26080;42.264;24.536;2022-11-24T02:03:06;98334.19;;;4.09;100.00
39793;BME280;26080;42.264;24.536;2022-11-24T02:05:55;98331.91;;;4.01;100.00
39793;BME280;26080;42.264;24.536;2022-11-24T02:11:22;98343.91;;;4.04;100.00
39793;BME280;26080;42.264;24.536;2022-11-24T02:13:49;98336.19;;;4.02;100.00
39793;BME280;26080;42.264;24.536;2022-11-24T02:16:15;98350.53;;;4.11;100.00
39793;BME280;26080;42.264;24.536;2022-11-24T02:18:42;98344.06;;;4.23;100.00
39793;BME280;26080;42.264;24.536;2022-11-24T02:21:10;98339.72;;;4.23;100.00
39793;BME280;26080;42.264;24.536;2022-11-24T02:26:41;98349.63;;;4.35;100.00
39793;BME280;26080;42.264;24.536;2022-11-24T02:29:08;98343.53;;;4.60;100.00
39793;BME280;26080;42.264;24.536;2022-11-24T02:31:34;98343.97;;;4.71;100.00
39793;BME280;26080;42.264;24.536;2022-11-24T02:34:00;98338.31;;;4.83;100.00
39793;BME280;26080;42.264;24.536;2022-11-24T02:36:25;98336.00;;;4.97;100.00
39793;BME280;26080;42.264;24.536;2022-11-24T02:38:51;98336.59;;;5.04;100.00
39793;BME280;26080;42.264;24.536;2022-11-24T02:41:21;98340.88;;;5.05;100.00
39793;BME280;26080;42.264;24.536;2022-11-24T02:43:52;98312.09;;;5.11;100.00
39793;BME280;26080;42.264;24.536;2022-11-24T02:46:18;98333.47;;;5.38;100.00
39793;BME280;26080;42.264;24.536;2022-11-24T02:48:43;98328.69;;;5.49;100.00
39793;BME280;26080;42.264;24.536;2022-11-24T02:51:09;98336.28;;;5.54;100.00
39793;BME280;26080;42.264;24.536;2022-11-24T02:53:34;98316.19;;;5.57;100.00
39793;BME280;26080;42.264;24.536;2022-11-24T02:56:00;98331.84;;;5.76;100.00
39793;BME280;26080;42.264;24.536;2022-11-24T02:58:25;98336.22;;;5.76;100.00
39793;BME280;26080;42.264;24.536;2022-11-24T03:00:51;98333.66;;;5.74;100.00
39793;BME280;26080;42.264;24.536;2022-11-24T03:03:19;98333.84;;;5.70;100.00
39793;BME280;26080;42.264;24.536;2022-11-24T03:05:45;98343.09;;;5.77;100.00
39793;BME280;26080;42.264;24.536;2022-11-24T03:08:10;98336.53;;;5.68;100.00
39793;BME280;26080;42.264;24.536;2022-11-24T03:10:37;98324.19;;;5.53;100.00
39793;BME280;26080;42.264;24.536;2022-11-24T03:13:02;98332.25;;;5.67;100.00
39793;BME280;26080;42.264;24.536;2022-11-24T03:15:28;98342.03;;;5.60;100.00
39793;BME280;26080;42.264;24.536;2022-11-24T03:17:54;98346.38;;;5.60;100.00
39793;BME280;26080;42.264;24.536;2022-11-24T03:20:20;98328.16;;;5.41;100.00
39793;BME280;26080;42.264;24.536;2022-11-24T03:22:46;98347.44;;;5.56;100.00
39793;BME280;26080;42.264;24.536;2022-11-24T03:25:11;98347.28;;;5.59;100.00
39793;BME280;26080;42.264;24.536;2022-11-24T03:27:37;98354.09;;;5.61;100.00
39793;BME280;26080;42.264;24.536;2022-11-24T03:30:02;98353.59;;;5.74;100.00
39793;BME280;26080;42.264;24.536;2022-11-24T03:32:28;98351.31;;;5.86;100.00
39793;BME280;26080;42.264;24.536;2022-11-24T03:34:53;98347.09;;;5.84;100.00
39793;BME280;26080;42.264;24.536;2022-11-24T03:37:19;98349.69;;;5.84;100.00
39793;BME280;26080;42.264;24.536;2022-11-24T03:39:45;98357.13;;;5.93;100.00
39793;BME280;26080;42.264;24.536;2022-11-24T03:42:10;98357.78;;;5.98;100.00
39793;BME280;26080;42.264;24.536;2022-11-24T03:44:35;98364.16;;;5.91;100.00
39793;BME280;26080;42.264;24.536;2022-11-24T03:47:01;98365.66;;;5.75;100.00
39793;BME280;26080;42.264;24.536;2022-11-24T03:49:26;98365.44;;;5.81;100.00
39793;BME280;26080;42.264;24.536;2022-11-24T03:51:52;98366.97;;;5.85;100.00
39793;BME280;26080;42.264;24.536;2022-11-24T03:54:17;98356.59;;;5.85;100.00
39793;BME280;26080;42.264;24.536;2022-11-24T03:56:43;98361.13;;;5.80;100.00
39793;BME280;26080;42.264;24.536;2022-11-24T03:59:08;98358.53;;;5.80;100.00
39793;BME280;26080;42.264;24.536;2022-11-24T04:01:33;98368.34;;;5.73;100.00
39793;BME280;26080;42.264;24.536;2022-11-24T04:03:59;98371.41;;;5.62;100.00
39793;BME280;26080;42.264;24.536;2022-11-24T04:06:24;98362.75;;;5.42;100.00
39793;BME280;26080;42.264;24.536;2022-11-24T04:08:50;98376.34;;;5.69;100.00
39793;BME280;26080;42.264;24.536;2022-11-24T04:11:15;98378.56;;;5.78;100.00
39793;BME280;26080;42.264;24.536;2022-11-24T04:13:59;98382.44;;;5.88;100.00
39793;BME280;26080;42.264;24.536;2022-11-24T04:16:25;98381.16;;;5.78;100.00
39793;BME280;26080;42.264;24.536;2022-11-24T04:18:52;98379.06;;;5.65;100.00
39793;BME280;26080;42.264;24.536;2022-11-24T04:21:18;98386.16;;;5.62;100.00
39793;BME280;26080;42.264;24.536;2022-11-24T04:23:43;98382.59;;;5.43;100.00
39793;BME280;26080;42.264;24.536;2022-11-24T04:26:09;98395.38;;;5.27;100.00
39793;BME280;26080;42.264;24.536;2022-11-24T04:28:34;98394.44;;;5.08;100.00
39793;BME280;26080;42.264;24.536;2022-11-24T04:31:02;98385.06;;;4.82;100.00
39793;BME280;26080;42.264;24.536;2022-11-24T04:33:27;98398.19;;;4.77;100.00
39793;BME280;26080;42.264;24.536;2022-11-24T04:35:53;98398.38;;;4.72;100.00
39793;BME280;26080;42.264;24.536;2022-11-24T04:38:18;98399.47;;;4.67;100.00
39793;BME280;26080;42.264;24.536;2022-11-24T04:40:44;98406.78;;;4.56;100.00
39793;BME280;26080;42.264;24.536;2022-11-24T04:43:09;98397.53;;;4.49;100.00
39793;BME280;26080;42.264;24.536;2022-11-24T04:45:35;98404.78;;;4.40;100.00
39793;BME280;26080;42.264;24.536;2022-11-24T04:48:00;98405.75;;;4.36;100.00
39793;BME280;26080;42.264;24.536;2022-11-24T04:50:25;98406.00;;;4.30;100.00
39793;BME280;26080;42.264;24.536;2022-11-24T04:52:51;98389.94;;;4.21;100.00
39793;BME280;26080;42.264;24.536;2022-11-24T04:55:17;98352.84;;;3.95;100.00
39793;BME280;26080;42.264;24.536;2022-11-24T04:57:42;98398.91;;;4.10;100.00
39793;BME280;26080;42.264;24.536;2022-11-24T05:00:08;98405.19;;;4.05;100.00
39793;BME280;26080;42.264;24.536;2022-11-24T05:02:34;98410.66;;;3.96;100.00
39793;BME280;26080;42.264;24.536;2022-11-24T05:05:00;98414.38;;;3.89;100.00
39793;BME280;26080;42.264;24.536;2022-11-24T05:07:26;98408.94;;;3.71;100.00
39793;BME280;26080;42.264;24.536;2022-11-24T05:09:51;98422.78;;;3.70;100.00
39793;BME280;26080;42.264;24.536;2022-11-24T05:12:35;98410.66;;;3.96;100.00
39793;BME280;26080;42.264;24.536;2022-11-24T05:15:03;98420.66;;;3.81;100.00
39793;BME280;26080;42.264;24.536;2022-11-24T05:17:33;98411.19;;;3.55;100.00
39793;BME280;26080;42.264;24.536;2022-11-24T05:19:59;98401.38;;;3.39;100.00
39793;BME280;26080;42.264;24.536;2022-11-24T05:22:27;98379.09;;;3.35;100.00
39793;BME280;26080;42.264;24.536;2022-11-24T05:24:52;98422.38;;;3.56;100.00
39793;BME280;26080;42.264;24.536;2022-11-24T05:27:18;98422.31;;;3.59;100.00
39793;BME280;26080;42.264;24.536;2022-11-24T05:29:43;98432.66;;;3.59;100.00
39793;BME280;26080;42.264;24.536;2022-11-24T05:32:09;98422.34;;;3.58;100.00
39793;BME280;26080;42.264;24.536;2022-11-24T05:34:34;98420.69;;;3.55;100.00
39793;BME280;26080;42.264;24.536;2022-11-24T05:36:59;98422.53;;;3.51;100.00
39793;BME280;26080;42.264;24.536;2022-11-24T05:39:32;98419.00;;;3.54;100.00
39793;BME280;26080;42.264;24.536;2022-11-24T05:41:58;98427.56;;;3.56;100.00
39793;BME280;26080;42.264;24.536;2022-11-24T05:44:23;98431.94;;;3.54;100.00
39793;BME280;26080;42.264;24.536;2022-11-24T05:46:49;98445.78;;;3.53;100.00
39793;BME280;26080;42.264;24.536;2022-11-24T05:49:14;98443.09;;;3.56;100.00
39793;BME280;26080;42.264;24.536;2022-11-24T05:51:40;98414.22;;;3.42;100.00
39793;BME280;26080;42.264;24.536;2022-11-24T05:54:05;98438.47;;;3.66;100.00
39793;BME280;26080;42.264;24.536;2022-11-24T05:56:30;98440.81;;;3.73;100.00
39793;BME280;26080;42.264;24.536;2022-11-24T05:58:56;98444.81;;;3.82;100.00
39793;BME280;26080;42.264;24.536;2022-11-24T06:01:21;98442.03;;;3.88;100.00
39793;BME280;26080;42.264;24.536;2022-11-24T06:03:47;98449.69;;;3.91;100.00
39793;BME280;26080;42.264;24.536;2022-11-24T06:06:12;98449.53;;;3.96;100.00
39793;BME280;26080;42.264;24.536;2022-11-24T06:08:38;98454.41;;;4.05;100.00
39793;BME280;26080;42.264;24.536;2022-11-24T06:11:03;98455.78;;;4.15;100.00
39793;BME280;26080;42.264;24.536;2022-11-24T06:13:45;98460.59;;;4.26;100.00
39793;BME280;26080;42.264;24.536;2022-11-24T06:16:11;98461.34;;;4.29;100.00
39793;BME280;26080;42.264;24.536;2022-11-24T06:18:37;98460.44;;;4.30;100.00
39793;BME280;26080;42.264;24.536;2022-11-24T06:21:03;98459.31;;;4.37;100.00
39793;BME280;26080;42.264;24.536;2022-11-24T06:23:29;98468.44;;;4.47;100.00
39793;BME280;26080;42.264;24.536;2022-11-24T06:25:59;98469.03;;;4.56;100.00
39793;BME280;26080;42.264;24.536;2022-11-24T06:28:26;98466.91;;;4.67;100.00
39793;BME280;26080;42.264;24.536;2022-11-24T06:30:52;98463.94;;;4.76;100.00
39793;BME280;26080;42.264;24.536;2022-11-24T06:33:17;98469.47;;;4.90;100.00
39793;BME280;26080;42.264;24.536;2022-11-24T06:35:43;98467.31;;;5.01;100.00
39793;BME280;26080;42.264;24.536;2022-11-24T06:38:08;98475.47;;;5.14;100.00
39793;BME280;26080;42.264;24.536;2022-11-24T06:40:33;98474.28;;;5.23;100.00
39793;BME280;26080;42.264;24.536;2022-11-24T06:42:59;98476.63;;;5.29;100.00
39793;BME280;26080;42.264;24.536;2022-11-24T06:45:25;98482.53;;;5.32;100.00
39793;BME280;26080;42.264;24.536;2022-11-24T06:47:54;98476.34;;;5.37;100.00
39793;BME280;26080;42.264;24.536;2022-11-24T06:50:22;98478.75;;;5.41;100.00
39793;BME280;26080;42.264;24.536;2022-11-24T06:52:47;98491.38;;;5.50;100.00
39793;BME280;26080;42.264;24.536;2022-11-24T06:55:13;98499.63;;;5.60;100.00
39793;BME280;26080;42.264;24.536;2022-11-24T06:57:38;98494.94;;;5.70;100.00
39793;BME280;26080;42.264;24.536;2022-11-24T07:00:05;98482.22;;;5.84;100.00
39793;BME280;26080;42.264;24.536;2022-11-24T07:02:32;98480.47;;;6.06;100.00
39793;BME280;26080;42.264;24.536;2022-11-24T07:04:57;98478.97;;;6.21;100.00
39793;BME280;26080;42.264;24.536;2022-11-24T07:07:23;98452.13;;;6.20;100.00
39793;BME280;26080;42.264;24.536;2022-11-24T07:09:48;98484.81;;;6.46;100.00
39793;BME280;26080;42.264;24.536;2022-11-24T07:12:14;98453.91;;;6.39;100.00
39793;BME280;26080;42.264;24.536;2022-11-24T07:14:39;98477.94;;;6.64;100.00
39793;BME280;26080;42.264;24.536;2022-11-24T07:17:04;98479.34;;;6.71;100.00
39793;BME280;26080;42.264;24.536;2022-11-24T07:19:30;98480.63;;;6.81;100.00
39793;BME280;26080;42.264;24.536;2022-11-24T07:21:56;98471.63;;;6.89;100.00
39793;BME280;26080;42.264;24.536;2022-11-24T07:24:21;98481.75;;;6.95;100.00
39793;BME280;26080;42.264;24.536;2022-11-24T07:26:46;98489.22;;;7.02;100.00
39793;BME280;26080;42.264;24.536;2022-11-24T07:29:12;98492.31;;;7.10;100.00
39793;BME280;26080;42.264;24.536;2022-11-24T07:31:38;98493.50;;;7.22;100.00
39793;BME280;26080;42.264;24.536;2022-11-24T07:34:03;98483.59;;;7.30;100.00
39793;BME280;26080;42.264;24.536;2022-11-24T07:36:29;98486.66;;;7.38;100.00
39793;BME280;26080;42.264;24.536;2022-11-24T07:38:54;98495.03;;;7.45;100.00
39793;BME280;26080;42.264;24.536;2022-11-24T07:41:20;98494.53;;;7.56;100.00
39793;BME280;26080;42.264;24.536;2022-11-24T07:43:46;98497.59;;;7.64;100.00
39793;BME280;26080;42.264;24.536;2022-11-24T07:46:13;98495.50;;;7.72;100.00
39793;BME280;26080;42.264;24.536;2022-11-24T07:48:38;98493.34;;;7.80;100.00
39793;BME280;26080;42.264;24.536;2022-11-24T07:51:05;98487.69;;;7.89;100.00
39793;BME280;26080;42.264;24.536;2022-11-24T07:53:31;98492.44;;;7.98;100.00
39793;BME280;26080;42.264;24.536;2022-11-24T07:55:59;98489.38;;;8.08;100.00
39793;BME280;26080;42.264;24.536;2022-11-24T07:58:29;98493.13;;;8.19;100.00
39793;BME280;26080;42.264;24.536;2022-11-24T08:00:55;98488.38;;;8.27;100.00
39793;BME280;26080;42.264;24.536;2022-11-24T08:03:21;98488.63;;;8.40;100.00
39793;BME280;26080;42.264;24.536;2022-11-24T08:05:57;98488.00;;;8.52;100.00
39793;BME280;26080;42.264;24.536;2022-11-24T08:08:23;98479.25;;;8.53;100.00
39793;BME280;26080;42.264;24.536;2022-11-24T08:10:49;98494.69;;;8.74;100.00
39793;BME280;26080;42.264;24.536;2022-11-24T08:13:15;98497.28;;;8.91;100.00
39793;BME280;26080;42.264;24.536;2022-11-24T08:15:41;98499.06;;;9.06;100.00
39793;BME280;26080;42.264;24.536;2022-11-24T08:18:06;98479.59;;;9.12;100.00
39793;BME280;26080;42.264;24.536;2022-11-24T08:20:31;98493.09;;;9.36;100.00
39793;BME280;26080;42.264;24.536;2022-11-24T08:22:58;98481.72;;;9.37;100.00
39793;BME280;26080;42.264;24.536;2022-11-24T08:25:24;98501.41;;;9.58;100.00
39793;BME280;26080;42.264;24.536;2022-11-24T08:27:55;98506.06;;;9.69;100.00
39793;BME280;26080;42.264;24.536;2022-11-24T08:30:21;98498.03;;;9.88;100.00
39793;BME280;26080;42.264;24.536;2022-11-24T08:32:46;98503.47;;;9.99;100.00
39793;BME280;26080;42.264;24.536;2022-11-24T08:35:12;98508.31;;;10.21;100.00
39793;BME280;26080;42.264;24.536;2022-11-24T08:37:37;98505.66;;;10.36;100.00
39793;BME280;26080;42.264;24.536;2022-11-24T08:40:03;98506.31;;;10.40;100.00
39793;BME280;26080;42.264;24.536;2022-11-24T08:42:28;98513.44;;;10.52;100.00
39793;BME280;26080;42.264;24.536;2022-11-24T08:44:54;98502.88;;;10.54;100.00
39793;BME280;26080;42.264;24.536;2022-11-24T08:47:19;98511.50;;;10.56;100.00
39793;BME280;26080;42.264;24.536;2022-11-24T08:49:46;98463.59;;;10.39;100.00
39793;BME280;26080;42.264;24.536;2022-11-24T08:52:11;98501.91;;;10.71;100.00
39793;BME280;26080;42.264;24.536;2022-11-24T08:54:36;98500.75;;;10.75;100.00
39793;BME280;26080;42.264;24.536;2022-11-24T08:57:02;98502.06;;;10.82;100.00
39793;BME280;26080;42.264;24.536;2022-11-24T08:59:27;98502.00;;;10.83;100.00
39793;BME280;26080;42.264;24.536;2022-11-24T09:01:53;98503.47;;;10.87;100.00
39793;BME280;26080;42.264;24.536;2022-11-24T09:04:19;98504.78;;;10.94;100.00
39793;BME280;26080;42.264;24.536;2022-11-24T09:06:45;98491.88;;;10.91;100.00
39793;BME280;26080;42.264;24.536;2022-11-24T09:09:10;98489.81;;;10.96;100.00
39793;BME280;26080;42.264;24.536;2022-11-24T09:11:36;98486.53;;;10.93;100.00
39793;BME280;26080;42.264;24.536;2022-11-24T09:14:04;98492.44;;;11.11;100.00
39793;BME280;26080;42.264;24.536;2022-11-24T09:16:30;98488.88;;;11.12;100.00
39793;BME280;26080;42.264;24.536;2022-11-24T09:18:58;98489.97;;;11.22;100.00
39793;BME280;26080;42.264;24.536;2022-11-24T09:21:23;98490.13;;;11.33;100.00
39793;BME280;26080;42.264;24.536;2022-11-24T09:23:50;98458.78;;;11.32;100.00
39793;BME280;26080;42.264;24.536;2022-11-24T09:26:19;98484.47;;;11.53;100.00
39793;BME280;26080;42.264;24.536;2022-11-24T09:28:46;98483.44;;;11.56;100.00
39793;BME280;26080;42.264;24.536;2022-11-24T09:31:13;98481.75;;;11.55;100.00
39793;BME280;26080;42.264;24.536;2022-11-24T09:33:40;98480.91;;;11.54;100.00
39793;BME280;26080;42.264;24.536;2022-11-24T09:36:05;98475.25;;;11.61;100.00
39793;BME280;26080;42.264;24.536;2022-11-24T09:38:31;98480.31;;;11.64;100.00
39793;BME280;26080;42.264;24.536;2022-11-24T09:52:43;98462.56;;;12.21;100.00
39793;BME280;26080;42.264;24.536;2022-11-24T09:55:47;98467.41;;;12.53;100.00
39793;BME280;26080;42.264;24.536;2022-11-24T09:58:46;98459.75;;;12.75;100.00
39793;BME280;26080;42.264;24.536;2022-11-24T10:01:17;98455.72;;;12.95;100.00
39793;BME280;26080;42.264;24.536;2022-11-24T10:03:46;98463.06;;;13.02;100.00
39793;BME280;26080;42.264;24.536;2022-11-24T10:11:56;98464.50;;;13.32;100.00
39793;BME280;26080;42.264;24.536;2022-11-24T10:20:08;98455.59;;;13.70;100.00
39793;BME280;26080;42.264;24.536;2022-11-24T10:25:56;98447.22;;;13.88;100.00
39793;BME280;26080;42.264;24.536;2022-11-24T10:28:26;98445.88;;;14.18;100.00
39793;BME280;26080;42.264;24.536;2022-11-24T10:31:08;98445.84;;;14.53;100.00
39793;BME280;26080;42.264;24.536;2022-11-24T10:33:37;98431.63;;;14.67;100.00
39793;BME280;26080;42.264;24.536;2022-11-24T10:36:07;98396.63;;;14.54;100.00
39793;BME280;26080;42.264;24.536;2022-11-24T10:38:41;98424.66;;;14.77;99.96
39793;BME280;26080;42.264;24.536;2022-11-24T10:41:14;98437.00;;;14.88;100.00
39793;BME280;26080;42.264;24.536;2022-11-24T10:43:41;98419.25;;;14.90;98.98
39793;BME280;26080;42.264;24.536;2022-11-24T10:46:14;98441.91;;;14.92;99.65
39793;BME280;26080;42.264;24.536;2022-11-24T10:48:48;98437.84;;;14.88;99.31
39793;BME280;26080;42.264;24.536;2022-11-24T10:51:32;98435.56;;;14.84;96.77
39793;BME280;26080;42.264;24.536;2022-11-24T10:54:04;98439.03;;;14.84;96.63
39793;BME280;26080;42.264;24.536;2022-11-24T10:56:40;98438.31;;;14.71;92.40
39793;BME280;26080;42.264;24.536;2022-11-24T10:59:36;98436.63;;;14.70;94.91
39793;BME280;26080;42.264;24.536;2022-11-24T11:02:26;98441.78;;;14.71;96.58
39793;BME280;26080;42.264;24.536;2022-11-24T11:04:52;98440.56;;;14.64;96.05
39793;BME280;26080;42.264;24.536;2022-11-24T11:07:20;98446.09;;;14.61;93.50
39793;BME280;26080;42.264;24.536;2022-11-24T11:09:46;98438.44;;;14.58;95.27
39793;BME280;26080;42.264;24.536;2022-11-24T11:12:26;98440.94;;;14.60;93.91
39793;BME280;26080;42.264;24.536;2022-11-24T11:14:52;98424.84;;;14.40;93.68
39793;BME280;26080;42.264;24.536;2022-11-24T11:17:25;98432.56;;;14.55;93.72
39793;BME280;26080;42.264;24.536;2022-11-24T11:20:23;98430.25;;;14.50;93.40
39793;BME280;26080;42.264;24.536;2022-11-24T11:22:47;98442.03;;;14.57;93.62
39793;BME280;26080;42.264;24.536;2022-11-24T11:25:19;98432.13;;;14.37;93.97
39793;BME280;26080;42.264;24.536;2022-11-24T11:27:46;98439.28;;;14.12;93.14
39793;BME280;26080;42.264;24.536;2022-11-24T11:30:19;98446.50;;;13.98;96.49
39793;BME280;26080;42.264;24.536;2022-11-24T11:32:57;98417.22;;;13.67;97.07
39793;BME280;26080;42.264;24.536;2022-11-24T11:35:25;98423.84;;;13.84;95.25
39793;BME280;26080;42.264;24.536;2022-11-24T11:37:53;98444.47;;;13.90;96.22
39793;BME280;26080;42.264;24.536;2022-11-24T11:40:27;98431.84;;;13.82;94.17
39793;BME280;26080;42.264;24.536;2022-11-24T11:43:08;98434.47;;;13.82;95.01
39793;BME280;26080;42.264;24.536;2022-11-24T11:45:41;98449.06;;;13.75;95.54
39793;BME280;26080;42.264;24.536;2022-11-24T11:48:23;98445.00;;;13.71;94.06
39793;BME280;26080;42.264;24.536;2022-11-24T11:51:03;98454.03;;;13.67;95.27
39793;BME280;26080;42.264;24.536;2022-11-24T12:02:47;98457.72;;;13.41;95.92
39793;BME280;26080;42.264;24.536;2022-11-24T12:15:44;98479.69;;;12.90;100.00
39793;BME280;26080;42.264;24.536;2022-11-24T12:21:15;98480.31;;;12.56;100.00
39793;BME280;26080;42.264;24.536;2022-11-24T12:24:05;98483.16;;;12.40;100.00
39793;BME280;26080;42.264;24.536;2022-11-24T12:26:47;98486.72;;;12.26;100.00
39793;BME280;26080;42.264;24.536;2022-11-24T12:49:09;98503.41;;;11.44;100.00
39793;BME280;26080;42.264;24.536;2022-11-24T12:51:41;98500.53;;;11.35;100.00
39793;BME280;26080;42.264;24.536;2022-11-24T12:54:14;98504.47;;;11.27;100.00
39793;BME280;26080;42.264;24.536;2022-11-24T12:59:26;98504.84;;;11.21;100.00
39793;BME280;26080;42.264;24.536;2022-11-24T13:07:58;98506.28;;;10.98;100.00
39793;BME280;26080;42.264;24.536;2022-11-24T13:13:06;98511.69;;;10.95;100.00
39793;BME280;26080;42.264;24.536;2022-11-24T13:18:43;98512.19;;;10.88;100.00
39793;BME280;26080;42.264;24.536;2022-11-24T13:23:58;98521.53;;;10.78;100.00
39793;BME280;26080;42.264;24.536;2022-11-24T13:31:52;98525.16;;;10.61;100.00
39793;BME280;26080;42.264;24.536;2022-11-24T13:42:21;98530.56;;;10.44;100.00
39793;BME280;26080;42.264;24.536;2022-11-24T13:44:54;98549.13;;;10.39;100.00
39793;BME280;26080;42.264;24.536;2022-11-24T13:49:55;98560.06;;;10.31;99.64
39793;BME280;26080;42.264;24.536;2022-11-24T13:57:41;98562.97;;;9.95;98.47
39793;BME280;26080;42.264;24.536;2022-11-24T14:02:45;98579.84;;;9.90;99.63
39793;BME280;26080;42.264;24.536;2022-11-24T14:05:15;98579.53;;;9.80;99.95
39793;BME280;26080;42.264;24.536;2022-11-24T14:07:43;98568.31;;;9.62;100.00
39793;BME280;26080;42.264;24.536;2022-11-24T14:10:18;98592.59;;;9.64;100.00
39793;BME280;26080;42.264;24.536;2022-11-24T14:12:45;98585.16;;;9.57;99.09
39793;BME280;26080;42.264;24.536;2022-11-24T14:15:25;98581.13;;;9.51;98.26
39793;BME280;26080;42.264;24.536;2022-11-24T14:17:52;98586.53;;;9.48;98.88
39793;BME280;26080;42.264;24.536;2022-11-24T14:20:26;98561.88;;;9.36;98.35
39793;BME280;26080;42.264;24.536;2022-11-24T14:22:52;98590.38;;;9.41;99.11
39793;BME280;26080;42.264;24.536;2022-11-24T14:25:38;98591.47;;;9.37;97.85
39793;BME280;26080;42.264;24.536;2022-11-24T14:28:24;98598.66;;;9.33;96.50
39793;BME280;26080;42.264;24.536;2022-11-24T14:31:08;98602.22;;;9.31;96.53
39793;BME280;26080;42.264;24.536;2022-11-24T14:33:35;98618.16;;;9.26;97.82
39793;BME280;26080;42.264;24.536;2022-11-24T14:36:01;98624.50;;;9.22;97.45
39793;BME280;26080;42.264;24.536;2022-11-24T14:38:26;98619.19;;;9.24;95.67
39793;BME280;26080;42.264;24.536;2022-11-24T14:40:53;98621.78;;;9.24;94.69
39793;BME280;26080;42.264;24.536;2022-11-24T14:43:22;98618.41;;;9.22;92.65
39793;BME280;26080;42.264;24.536;2022-11-24T14:46:00;98628.88;;;9.22;91.74
39793;BME280;26080;42.264;24.536;2022-11-24T14:51:24;98629.94;;;9.17;90.44
39793;BME280;26080;42.264;24.536;2022-11-24T14:53:56;98623.81;;;9.18;89.44